sensor_id;sensor_type;location;lat;lon;timestamp;P1;durP1;ratioP1;P2;durP2;ratioP2
48516;SDS011;34310;51.904;4.256;2023-03-19T00:00:45;15.00;;;11.80;;
48516;SDS011;34310;51.904;4.256;2023-03-19T00:03:13;15.48;;;12.40;;
48516;SDS011;34310;51.904;4.256;2023-03-19T00:05:40;15.00;;;11.95;;
48516;SDS011;34310;51.904;4.256;2023-03-19T00:08:15;14.77;;;11.68;;
48516;SDS011;34310;51.904;4.256;2023-03-19T00:10:43;15.13;;;11.60;;
48516;SDS011;34310;51.904;4.256;2023-03-19T00:13:10;16.00;;;12.15;;
48516;SDS011;34310;51.904;4.256;2023-03-19T00:15:37;16.52;;;11.85;;
48516;SDS011;34310;51.904;4.256;2023-03-19T00:18:05;14.20;;;11.55;;
48516;SDS011;34310;51.904;4.256;2023-03-19T00:20:33;14.10;;;11.43;;
48516;SDS011;34310;51.904;4.256;2023-03-19T00:23:01;13.95;;;11.45;;
48516;SDS011;34310;51.904;4.256;2023-03-19T00:25:28;13.88;;;11.38;;
48516;SDS011;34310;51.904;4.256;2023-03-19T00:27:57;14.35;;;11.65;;
48516;SDS011;34310;51.904;4.256;2023-03-19T00:30:24;14.80;;;11.90;;
48516;SDS011;34310;51.904;4.256;2023-03-19T00:32:52;13.18;;;10.75;;
48516;SDS011;34310;51.904;4.256;2023-03-19T00:35:19;16.27;;;11.70;;
48516;SDS011;34310;51.904;4.256;2023-03-19T00:37:47;14.48;;;11.68;;
48516;SDS011;34310;51.904;4.256;2023-03-19T00:40:14;14.27;;;11.20;;
48516;SDS011;34310;51.904;4.256;2023-03-19T00:42:41;15.48;;;11.40;;
48516;SDS011;34310;51.904;4.256;2023-03-19T00:45:10;13.23;;;10.85;;
48516;SDS011;34310;51.904;4.256;2023-03-19T00:47:38;13.40;;;10.75;;
48516;SDS011;34310;51.904;4.256;2023-03-19T00:50:05;12.57;;;10.48;;
48516;SDS011;34310;51.904;4.256;2023-03-19T00:52:34;12.77;;;10.75;;
48516;SDS011;34310;51.904;4.256;2023-03-19T00:55:01;13.30;;;10.85;;
48516;SDS011;34310;51.904;4.256;2023-03-19T00:57:28;13.40;;;10.80;;
48516;SDS011;34310;51.904;4.256;2023-03-19T00:59:56;11.82;;;10.13;;
48516;SDS011;34310;51.904;4.256;2023-03-19T01:02:23;12.82;;;10.60;;
48516;SDS011;34310;51.904;4.256;2023-03-19T01:04:50;13.20;;;10.30;;
48516;SDS011;34310;51.904;4.256;2023-03-19T01:07:18;11.85;;;10.10;;
48516;SDS011;34310;51.904;4.256;2023-03-19T01:09:46;13.43;;;10.23;;
48516;SDS011;34310;51.904;4.256;2023-03-19T01:12:13;12.73;;;10.30;;
48516;SDS011;34310;51.904;4.256;2023-03-19T01:14:41;11.85;;;10.20;;
48516;SDS011;34310;51.904;4.256;2023-03-19T01:17:08;11.00;;;9.32;;
48516;SDS011;34310;51.904;4.256;2023-03-19T01:19:36;12.18;;;9.77;;
48516;SDS011;34310;51.904;4.256;2023-03-19T01:22:03;11.38;;;8.82;;
48516;SDS011;34310;51.904;4.256;2023-03-19T01:24:30;11.07;;;9.38;;
48516;SDS011;34310;51.904;4.256;2023-03-19T01:26:58;12.45;;;10.10;;
48516;SDS011;34310;51.904;4.256;2023-03-19T01:29:25;11.35;;;9.25;;
48516;SDS011;34310;51.904;4.256;2023-03-19T01:31:53;10.20;;;8.85;;
48516;SDS011;34310;51.904;4.256;2023-03-19T01:34:21;11.80;;;9.77;;
48516;SDS011;34310;51.904;4.256;2023-03-19T01:36:48;10.43;;;8.98;;
48516;SDS011;34310;51.904;4.256;2023-03-19T01:39:15;10.80;;;8.90;;
48516;SDS011;34310;51.904;4.256;2023-03-19T01:41:43;10.13;;;8.68;;
48516;SDS011;34310;51.904;4.256;2023-03-19T01:44:27;10.50;;;9.00;;
48516;SDS011;34310;51.904;4.256;2023-03-19T01:46:55;10.40;;;8.65;;
48516;SDS011;34310;51.904;4.256;2023-03-19T01:49:26;10.35;;;8.30;;
48516;SDS011;34310;51.904;4.256;2023-03-19T01:51:56;9.00;;;7.85;;
48516;SDS011;34310;51.904;4.256;2023-03-19T01:54:26;8.88;;;7.90;;
48516;SDS011;34310;51.904;4.256;2023-03-19T01:57:06;9.13;;;8.00;;
48516;SDS011;34310;51.904;4.256;2023-03-19T01:59:37;8.52;;;7.65;;
48516;SDS011;34310;51.904;4.256;2023-03-19T02:02:22;8.50;;;7.32;;
48516;SDS011;34310;51.904;4.256;2023-03-19T02:05:06;8.50;;;6.90;;
48516;SDS011;34310;51.904;4.256;2023-03-19T02:07:40;9.27;;;7.90;;
48516;SDS011;34310;51.904;4.256;2023-03-19T02:10:12;9.20;;;7.50;;
48516;SDS011;34310;51.904;4.256;2023-03-19T02:12:42;8.02;;;6.80;;
48516;SDS011;34310;51.904;4.256;2023-03-19T02:15:10;7.55;;;6.38;;
48516;SDS011;34310;51.904;4.256;2023-03-19T02:17:39;7.65;;;6.55;;
48516;SDS011;34310;51.904;4.256;2023-03-19T02:20:17;7.55;;;6.65;;
48516;SDS011;34310;51.904;4.256;2023-03-19T02:22:59;7.68;;;6.40;;
48516;SDS011;34310;51.904;4.256;2023-03-19T02:28:14;6.47;;;5.82;;
48516;SDS011;34310;51.904;4.256;2023-03-19T02:30:43;7.50;;;6.30;;
48516;SDS011;34310;51.904;4.256;2023-03-19T02:33:12;7.28;;;6.03;;
48516;SDS011;34310;51.904;4.256;2023-03-19T02:35:41;8.07;;;6.53;;
48516;SDS011;34310;51.904;4.256;2023-03-19T02:38:09;7.13;;;5.63;;
48516;SDS011;34310;51.904;4.256;2023-03-19T02:43:26;6.72;;;5.65;;
48516;SDS011;34310;51.904;4.256;2023-03-19T02:45:54;7.07;;;5.90;;
48516;SDS011;34310;51.904;4.256;2023-03-19T02:48:23;6.47;;;5.75;;
48516;SDS011;34310;51.904;4.256;2023-03-19T02:50:50;6.45;;;5.72;;
48516;SDS011;34310;51.904;4.256;2023-03-19T02:53:17;7.00;;;6.30;;
48516;SDS011;34310;51.904;4.256;2023-03-19T02:55:45;7.22;;;6.10;;
48516;SDS011;34310;51.904;4.256;2023-03-19T02:58:12;6.78;;;6.00;;
48516;SDS011;34310;51.904;4.256;2023-03-19T03:00:40;6.80;;;6.10;;
48516;SDS011;34310;51.904;4.256;2023-03-19T03:03:08;6.80;;;6.10;;
48516;SDS011;34310;51.904;4.256;2023-03-19T03:05:35;7.00;;;6.15;;
48516;SDS011;34310;51.904;4.256;2023-03-19T03:08:03;6.90;;;6.20;;
48516;SDS011;34310;51.904;4.256;2023-03-19T03:10:31;6.70;;;6.07;;
48516;SDS011;34310;51.904;4.256;2023-03-19T03:12:59;6.35;;;5.75;;
48516;SDS011;34310;51.904;4.256;2023-03-19T03:15:26;7.45;;;6.65;;
48516;SDS011;34310;51.904;4.256;2023-03-19T03:17:54;6.75;;;6.10;;
48516;SDS011;34310;51.904;4.256;2023-03-19T03:20:22;7.40;;;6.70;;
48516;SDS011;34310;51.904;4.256;2023-03-19T03:22:49;7.30;;;6.57;;
48516;SDS011;34310;51.904;4.256;2023-03-19T03:25:17;7.93;;;7.13;;
48516;SDS011;34310;51.904;4.256;2023-03-19T03:27:44;7.90;;;7.10;;
48516;SDS011;34310;51.904;4.256;2023-03-19T03:30:12;7.82;;;7.03;;
48516;SDS011;34310;51.904;4.256;2023-03-19T03:32:41;7.85;;;7.05;;
48516;SDS011;34310;51.904;4.256;2023-03-19T03:35:09;7.57;;;6.88;;
48516;SDS011;34310;51.904;4.256;2023-03-19T03:37:36;8.23;;;7.43;;
48516;SDS011;34310;51.904;4.256;2023-03-19T03:40:05;8.45;;;7.63;;
48516;SDS011;34310;51.904;4.256;2023-03-19T03:42:34;7.75;;;7.00;;
48516;SDS011;34310;51.904;4.256;2023-03-19T03:45:02;8.30;;;7.40;;
48516;SDS011;34310;51.904;4.256;2023-03-19T03:47:30;8.88;;;7.97;;
48516;SDS011;34310;51.904;4.256;2023-03-19T03:49:57;8.80;;;7.90;;
48516;SDS011;34310;51.904;4.256;2023-03-19T03:52:24;8.68;;;7.88;;
48516;SDS011;34310;51.904;4.256;2023-03-19T03:54:56;8.93;;;8.13;;
48516;SDS011;34310;51.904;4.256;2023-03-19T03:57:24;9.90;;;8.43;;
48516;SDS011;34310;51.904;4.256;2023-03-19T03:59:52;9.35;;;8.45;;
48516;SDS011;34310;51.904;4.256;2023-03-19T04:02:20;10.15;;;8.57;;
48516;SDS011;34310;51.904;4.256;2023-03-19T04:04:47;10.13;;;9.13;;
48516;SDS011;34310;51.904;4.256;2023-03-19T04:07:15;9.27;;;8.38;;
48516;SDS011;34310;51.904;4.256;2023-03-19T04:09:42;9.90;;;8.90;;
48516;SDS011;34310;51.904;4.256;2023-03-19T04:12:14;10.68;;;9.30;;
48516;SDS011;34310;51.904;4.256;2023-03-19T04:14:41;9.82;;;8.82;;
48516;SDS011;34310;51.904;4.256;2023-03-19T04:17:09;10.93;;;9.73;;
48516;SDS011;34310;51.904;4.256;2023-03-19T04:19:36;10.23;;;9.13;;
48516;SDS011;34310;51.904;4.256;2023-03-19T04:22:03;10.93;;;9.80;;
48516;SDS011;34310;51.904;4.256;2023-03-19T04:24:33;11.45;;;9.77;;
48516;SDS011;34310;51.904;4.256;2023-03-19T04:27:00;11.68;;;10.48;;
48516;SDS011;34310;51.904;4.256;2023-03-19T04:29:28;11.02;;;9.90;;
48516;SDS011;34310;51.904;4.256;2023-03-19T04:31:55;12.02;;;10.10;;
48516;SDS011;34310;51.904;4.256;2023-03-19T04:34:22;11.65;;;10.45;;
48516;SDS011;34310;51.904;4.256;2023-03-19T04:36:50;11.02;;;9.82;;
48516;SDS011;34310;51.904;4.256;2023-03-19T04:39:17;12.55;;;11.23;;
48516;SDS011;34310;51.904;4.256;2023-03-19T04:41:44;11.73;;;10.52;;
48516;SDS011;34310;51.904;4.256;2023-03-19T04:44:12;12.15;;;10.95;;
48516;SDS011;34310;51.904;4.256;2023-03-19T04:46:39;13.30;;;11.10;;
48516;SDS011;34310;51.904;4.256;2023-03-19T04:49:07;11.50;;;10.30;;
48516;SDS011;34310;51.904;4.256;2023-03-19T04:51:34;12.23;;;10.93;;
48516;SDS011;34310;51.904;4.256;2023-03-19T04:54:01;13.07;;;11.73;;
48516;SDS011;34310;51.904;4.256;2023-03-19T04:56:30;12.48;;;11.18;;
48516;SDS011;34310;51.904;4.256;2023-03-19T04:58:58;13.82;;;12.20;;
48516;SDS011;34310;51.904;4.256;2023-03-19T05:01:25;12.77;;;11.38;;
48516;SDS011;34310;51.904;4.256;2023-03-19T05:03:53;13.02;;;11.63;;
48516;SDS011;34310;51.904;4.256;2023-03-19T05:06:20;13.00;;;11.55;;
48516;SDS011;34310;51.904;4.256;2023-03-19T05:08:48;13.45;;;12.05;;
48516;SDS011;34310;51.904;4.256;2023-03-19T05:11:15;14.52;;;12.07;;
48516;SDS011;34310;51.904;4.256;2023-03-19T05:13:42;13.32;;;11.93;;
48516;SDS011;34310;51.904;4.256;2023-03-19T05:16:10;13.30;;;11.90;;
48516;SDS011;34310;51.904;4.256;2023-03-19T05:18:38;14.88;;;12.60;;
48516;SDS011;34310;51.904;4.256;2023-03-19T05:21:08;15.50;;;13.32;;
48516;SDS011;34310;51.904;4.256;2023-03-19T05:23:37;14.40;;;12.90;;
48516;SDS011;34310;51.904;4.256;2023-03-19T05:26:05;15.43;;;13.23;;
48516;SDS011;34310;51.904;4.256;2023-03-19T05:28:33;15.05;;;12.90;;
48516;SDS011;34310;51.904;4.256;2023-03-19T05:31:02;14.63;;;12.88;;
48516;SDS011;34310;51.904;4.256;2023-03-19T05:33:30;15.15;;;13.05;;
48516;SDS011;34310;51.904;4.256;2023-03-19T05:35:57;15.00;;;12.68;;
48516;SDS011;34310;51.904;4.256;2023-03-19T05:38:25;17.08;;;14.00;;
48516;SDS011;34310;51.904;4.256;2023-03-19T05:40:52;17.17;;;14.02;;
48516;SDS011;34310;51.904;4.256;2023-03-19T05:43:19;15.75;;;13.55;;
48516;SDS011;34310;51.904;4.256;2023-03-19T05:45:50;17.92;;;13.90;;
48516;SDS011;34310;51.904;4.256;2023-03-19T05:48:18;15.77;;;13.40;;
48516;SDS011;34310;51.904;4.256;2023-03-19T05:50:46;17.42;;;14.32;;
48516;SDS011;34310;51.904;4.256;2023-03-19T05:53:14;17.75;;;14.20;;
48516;SDS011;34310;51.904;4.256;2023-03-19T05:55:41;15.60;;;13.55;;
48516;SDS011;34310;51.904;4.256;2023-03-19T05:58:08;16.55;;;13.85;;
48516;SDS011;34310;51.904;4.256;2023-03-19T06:00:36;16.98;;;14.20;;
48516;SDS011;34310;51.904;4.256;2023-03-19T06:03:03;18.10;;;14.50;;
48516;SDS011;34310;51.904;4.256;2023-03-19T06:05:31;18.02;;;14.55;;
48516;SDS011;34310;51.904;4.256;2023-03-19T06:07:58;17.52;;;14.30;;
48516;SDS011;34310;51.904;4.256;2023-03-19T06:10:26;17.10;;;14.27;;
48516;SDS011;34310;51.904;4.256;2023-03-19T06:12:53;18.00;;;14.55;;
48516;SDS011;34310;51.904;4.256;2023-03-19T06:15:21;17.73;;;14.55;;
48516;SDS011;34310;51.904;4.256;2023-03-19T06:17:48;16.90;;;14.32;;
48516;SDS011;34310;51.904;4.256;2023-03-19T06:20:15;17.25;;;14.55;;
48516;SDS011;34310;51.904;4.256;2023-03-19T06:22:44;17.48;;;14.30;;
48516;SDS011;34310;51.904;4.256;2023-03-19T06:25:11;17.25;;;13.65;;
48516;SDS011;34310;51.904;4.256;2023-03-19T06:27:39;16.95;;;13.88;;
48516;SDS011;34310;51.904;4.256;2023-03-19T06:30:06;18.45;;;14.77;;
48516;SDS011;34310;51.904;4.256;2023-03-19T06:32:35;16.33;;;13.50;;
48516;SDS011;34310;51.904;4.256;2023-03-19T06:35:03;17.30;;;13.85;;
48516;SDS011;34310;51.904;4.256;2023-03-19T06:37:31;16.65;;;13.68;;
48516;SDS011;34310;51.904;4.256;2023-03-19T06:39:58;16.67;;;13.52;;
48516;SDS011;34310;51.904;4.256;2023-03-19T06:42:26;16.85;;;13.85;;
48516;SDS011;34310;51.904;4.256;2023-03-19T06:44:53;16.50;;;13.75;;
48516;SDS011;34310;51.904;4.256;2023-03-19T06:47:20;16.13;;;13.07;;
48516;SDS011;34310;51.904;4.256;2023-03-19T06:49:48;16.85;;;13.52;;
48516;SDS011;34310;51.904;4.256;2023-03-19T06:52:15;15.52;;;12.60;;
48516;SDS011;34310;51.904;4.256;2023-03-19T06:54:42;16.35;;;13.80;;
48516;SDS011;34310;51.904;4.256;2023-03-19T06:57:10;15.95;;;13.10;;
48516;SDS011;34310;51.904;4.256;2023-03-19T06:59:37;16.13;;;13.13;;
48516;SDS011;34310;51.904;4.256;2023-03-19T07:02:04;16.73;;;13.25;;
48516;SDS011;34310;51.904;4.256;2023-03-19T07:04:35;14.98;;;12.63;;
48516;SDS011;34310;51.904;4.256;2023-03-19T07:07:02;15.05;;;13.18;;
48516;SDS011;34310;51.904;4.256;2023-03-19T07:09:31;20.02;;;14.63;;
48516;SDS011;34310;51.904;4.256;2023-03-19T07:11:58;18.65;;;13.00;;
48516;SDS011;34310;51.904;4.256;2023-03-19T07:14:25;15.63;;;12.35;;
48516;SDS011;34310;51.904;4.256;2023-03-19T07:16:53;15.38;;;12.75;;
48516;SDS011;34310;51.904;4.256;2023-03-19T07:19:20;18.23;;;12.88;;
48516;SDS011;34310;51.904;4.256;2023-03-19T07:21:48;16.85;;;12.43;;
48516;SDS011;34310;51.904;4.256;2023-03-19T07:24:15;15.88;;;12.88;;
48516;SDS011;34310;51.904;4.256;2023-03-19T07:26:43;18.15;;;13.95;;
48516;SDS011;34310;51.904;4.256;2023-03-19T07:29:11;15.88;;;12.77;;
48516;SDS011;34310;51.904;4.256;2023-03-19T07:31:39;17.33;;;13.52;;
48516;SDS011;34310;51.904;4.256;2023-03-19T07:34:06;16.10;;;12.80;;
48516;SDS011;34310;51.904;4.256;2023-03-19T07:36:33;35.88;;;22.50;;
48516;SDS011;34310;51.904;4.256;2023-03-19T07:39:01;22.73;;;16.40;;
48516;SDS011;34310;51.904;4.256;2023-03-19T07:41:28;23.25;;;16.10;;
48516;SDS011;34310;51.904;4.256;2023-03-19T07:43:56;22.77;;;15.93;;
48516;SDS011;34310;51.904;4.256;2023-03-19T07:46:23;27.27;;;18.25;;
48516;SDS011;34310;51.904;4.256;2023-03-19T07:48:51;24.75;;;17.67;;
48516;SDS011;34310;51.904;4.256;2023-03-19T07:51:18;26.52;;;19.48;;
48516;SDS011;34310;51.904;4.256;2023-03-19T07:53:46;29.08;;;19.73;;
48516;SDS011;34310;51.904;4.256;2023-03-19T07:56:14;27.42;;;19.40;;
48516;SDS011;34310;51.904;4.256;2023-03-19T07:58:41;27.30;;;19.05;;
48516;SDS011;34310;51.904;4.256;2023-03-19T08:01:08;25.33;;;18.38;;
48516;SDS011;34310;51.904;4.256;2023-03-19T08:03:36;29.58;;;19.00;;
48516;SDS011;34310;51.904;4.256;2023-03-19T08:06:04;30.63;;;19.67;;
48516;SDS011;34310;51.904;4.256;2023-03-19T08:08:31;28.98;;;20.05;;
48516;SDS011;34310;51.904;4.256;2023-03-19T08:11:00;28.42;;;20.23;;
48516;SDS011;34310;51.904;4.256;2023-03-19T08:13:28;26.67;;;19.15;;
48516;SDS011;34310;51.904;4.256;2023-03-19T08:15:55;27.10;;;19.50;;
48516;SDS011;34310;51.904;4.256;2023-03-19T08:18:22;27.50;;;19.05;;
48516;SDS011;34310;51.904;4.256;2023-03-19T08:20:50;27.67;;;19.30;;
48516;SDS011;34310;51.904;4.256;2023-03-19T08:23:17;26.13;;;18.77;;
48516;SDS011;34310;51.904;4.256;2023-03-19T08:25:45;28.42;;;20.27;;
48516;SDS011;34310;51.904;4.256;2023-03-19T08:28:12;27.02;;;19.25;;
48516;SDS011;34310;51.904;4.256;2023-03-19T08:30:39;26.38;;;19.55;;
48516;SDS011;34310;51.904;4.256;2023-03-19T08:33:07;26.45;;;19.20;;
48516;SDS011;34310;51.904;4.256;2023-03-19T08:35:34;27.30;;;19.55;;
48516;SDS011;34310;51.904;4.256;2023-03-19T08:38:02;25.45;;;18.55;;
48516;SDS011;34310;51.904;4.256;2023-03-19T08:40:29;25.90;;;19.83;;
48516;SDS011;34310;51.904;4.256;2023-03-19T08:42:56;26.60;;;19.50;;
48516;SDS011;34310;51.904;4.256;2023-03-19T08:45:24;28.20;;;18.83;;
48516;SDS011;34310;51.904;4.256;2023-03-19T08:47:51;29.60;;;19.38;;
48516;SDS011;34310;51.904;4.256;2023-03-19T08:50:18;27.23;;;19.40;;
48516;SDS011;34310;51.904;4.256;2023-03-19T08:52:46;26.80;;;19.30;;
48516;SDS011;34310;51.904;4.256;2023-03-19T08:55:13;29.15;;;20.45;;
48516;SDS011;34310;51.904;4.256;2023-03-19T08:57:41;27.08;;;19.27;;
48516;SDS011;34310;51.904;4.256;2023-03-19T09:00:09;24.85;;;18.60;;
48516;SDS011;34310;51.904;4.256;2023-03-19T09:02:37;27.10;;;18.92;;
48516;SDS011;34310;51.904;4.256;2023-03-19T09:05:05;28.42;;;19.67;;
48516;SDS011;34310;51.904;4.256;2023-03-19T09:07:33;25.95;;;19.00;;
48516;SDS011;34310;51.904;4.256;2023-03-19T09:10:00;27.35;;;18.95;;
48516;SDS011;34310;51.904;4.256;2023-03-19T09:12:28;26.15;;;18.50;;
48516;SDS011;34310;51.904;4.256;2023-03-19T09:14:55;26.35;;;18.83;;
48516;SDS011;34310;51.904;4.256;2023-03-19T09:17:22;26.63;;;19.58;;
48516;SDS011;34310;51.904;4.256;2023-03-19T09:19:50;25.73;;;18.98;;
48516;SDS011;34310;51.904;4.256;2023-03-19T09:22:17;26.88;;;19.58;;
48516;SDS011;34310;51.904;4.256;2023-03-19T09:24:44;24.92;;;18.13;;
48516;SDS011;34310;51.904;4.256;2023-03-19T09:27:12;26.90;;;19.45;;
48516;SDS011;34310;51.904;4.256;2023-03-19T09:29:39;27.92;;;19.25;;
48516;SDS011;34310;51.904;4.256;2023-03-19T09:32:07;26.85;;;19.35;;
48516;SDS011;34310;51.904;4.256;2023-03-19T09:34:34;28.63;;;20.00;;
48516;SDS011;34310;51.904;4.256;2023-03-19T09:37:01;27.98;;;19.83;;
48516;SDS011;34310;51.904;4.256;2023-03-19T09:39:29;24.15;;;18.48;;
48516;SDS011;34310;51.904;4.256;2023-03-19T09:45:02;26.35;;;18.85;;
48516;SDS011;34310;51.904;4.256;2023-03-19T09:47:37;25.30;;;19.25;;
48516;SDS011;34310;51.904;4.256;2023-03-19T09:50:12;24.02;;;17.83;;
48516;SDS011;34310;51.904;4.256;2023-03-19T09:52:58;23.63;;;17.58;;
48516;SDS011;34310;51.904;4.256;2023-03-19T09:55:47;24.38;;;17.85;;
48516;SDS011;34310;51.904;4.256;2023-03-19T09:58:20;23.33;;;17.92;;
48516;SDS011;34310;51.904;4.256;2023-03-19T10:00:53;21.45;;;16.55;;
48516;SDS011;34310;51.904;4.256;2023-03-19T10:11:51;22.65;;;17.10;;
48516;SDS011;34310;51.904;4.256;2023-03-19T10:17:09;23.55;;;17.77;;
48516;SDS011;34310;51.904;4.256;2023-03-19T10:19:52;22.50;;;17.20;;
48516;SDS011;34310;51.904;4.256;2023-03-19T10:22:29;20.50;;;16.33;;
48516;SDS011;34310;51.904;4.256;2023-03-19T10:25:07;20.10;;;15.70;;
48516;SDS011;34310;51.904;4.256;2023-03-19T10:27:41;21.13;;;16.13;;
48516;SDS011;34310;51.904;4.256;2023-03-19T10:30:14;21.48;;;16.63;;
48516;SDS011;34310;51.904;4.256;2023-03-19T10:32:45;21.02;;;15.93;;
48516;SDS011;34310;51.904;4.256;2023-03-19T10:35:26;20.83;;;15.68;;
48516;SDS011;34310;51.904;4.256;2023-03-19T10:38:11;21.50;;;15.65;;
48516;SDS011;34310;51.904;4.256;2023-03-19T10:40:55;21.23;;;15.52;;
48516;SDS011;34310;51.904;4.256;2023-03-19T10:44:01;22.30;;;16.35;;
48516;SDS011;34310;51.904;4.256;2023-03-19T10:46:36;19.73;;;15.05;;
48516;SDS011;34310;51.904;4.256;2023-03-19T10:49:04;21.48;;;15.95;;
48516;SDS011;34310;51.904;4.256;2023-03-19T10:51:38;19.77;;;15.45;;
48516;SDS011;34310;51.904;4.256;2023-03-19T10:54:16;19.70;;;15.18;;
48516;SDS011;34310;51.904;4.256;2023-03-19T10:56:45;19.40;;;16.23;;
48516;SDS011;34310;51.904;4.256;2023-03-19T10:59:47;18.00;;;14.75;;
48516;SDS011;34310;51.904;4.256;2023-03-19T11:04:46;18.33;;;14.50;;
48516;SDS011;34310;51.904;4.256;2023-03-19T11:07:20;19.90;;;15.25;;
48516;SDS011;34310;51.904;4.256;2023-03-19T11:09:50;18.30;;;14.80;;
48516;SDS011;34310;51.904;4.256;2023-03-19T11:12:22;18.70;;;14.43;;
48516;SDS011;34310;51.904;4.256;2023-03-19T11:15:00;18.92;;;14.70;;
48516;SDS011;34310;51.904;4.256;2023-03-19T11:17:37;18.42;;;14.85;;
48516;SDS011;34310;51.904;4.256;2023-03-19T11:22:53;19.63;;;14.65;;
48516;SDS011;34310;51.904;4.256;2023-03-19T11:25:27;19.20;;;15.07;;
48516;SDS011;34310;51.904;4.256;2023-03-19T11:28:05;19.27;;;14.85;;
48516;SDS011;34310;51.904;4.256;2023-03-19T11:30:39;17.70;;;13.52;;
48516;SDS011;34310;51.904;4.256;2023-03-19T11:36:03;19.20;;;14.10;;
48516;SDS011;34310;51.904;4.256;2023-03-19T11:44:33;16.70;;;14.02;;
48516;SDS011;34310;51.904;4.256;2023-03-19T11:47:34;17.45;;;14.05;;
48516;SDS011;34310;51.904;4.256;2023-03-19T12:01:14;17.30;;;13.52;;
48516;SDS011;34310;51.904;4.256;2023-03-19T12:04:16;16.60;;;13.07;;
48516;SDS011;34310;51.904;4.256;2023-03-19T12:07:20;14.90;;;12.50;;
48516;SDS011;34310;51.904;4.256;2023-03-19T12:12:55;17.13;;;13.52;;
48516;SDS011;34310;51.904;4.256;2023-03-19T12:27:23;15.98;;;13.07;;
48516;SDS011;34310;51.904;4.256;2023-03-19T12:35:46;14.95;;;11.73;;
48516;SDS011;34310;51.904;4.256;2023-03-19T12:38:19;15.52;;;12.00;;
48516;SDS011;34310;51.904;4.256;2023-03-19T12:49:20;16.05;;;11.80;;
48516;SDS011;34310;51.904;4.256;2023-03-19T12:51:59;14.55;;;11.80;;
48516;SDS011;34310;51.904;4.256;2023-03-19T12:57:31;14.68;;;11.73;;
48516;SDS011;34310;51.904;4.256;2023-03-19T13:00:06;13.93;;;11.23;;
48516;SDS011;34310;51.904;4.256;2023-03-19T13:02:57;16.05;;;11.73;;
48516;SDS011;34310;51.904;4.256;2023-03-19T13:05:47;15.45;;;12.57;;
48516;SDS011;34310;51.904;4.256;2023-03-19T13:08:22;14.95;;;11.70;;
48516;SDS011;34310;51.904;4.256;2023-03-19T13:11:12;14.82;;;11.52;;
48516;SDS011;34310;51.904;4.256;2023-03-19T13:13:49;15.13;;;12.07;;
48516;SDS011;34310;51.904;4.256;2023-03-19T13:19:24;14.10;;;11.07;;
48516;SDS011;34310;51.904;4.256;2023-03-19T13:22:02;13.13;;;10.63;;
48516;SDS011;34310;51.904;4.256;2023-03-19T13:24:35;16.48;;;11.60;;
48516;SDS011;34310;51.904;4.256;2023-03-19T13:27:10;13.88;;;10.50;;
48516;SDS011;34310;51.904;4.256;2023-03-19T13:30:00;15.23;;;11.52;;
48516;SDS011;34310;51.904;4.256;2023-03-19T13:32:43;13.43;;;10.80;;
48516;SDS011;34310;51.904;4.256;2023-03-19T13:38:39;13.27;;;10.87;;
48516;SDS011;34310;51.904;4.256;2023-03-19T13:43:58;13.07;;;10.80;;
48516;SDS011;34310;51.904;4.256;2023-03-19T13:46:47;14.35;;;10.43;;
48516;SDS011;34310;51.904;4.256;2023-03-19T13:52:02;14.50;;;10.70;;
48516;SDS011;34310;51.904;4.256;2023-03-19T13:54:45;13.98;;;10.32;;
48516;SDS011;34310;51.904;4.256;2023-03-19T13:59:44;12.57;;;9.88;;
48516;SDS011;34310;51.904;4.256;2023-03-19T14:05:05;13.90;;;10.10;;
48516;SDS011;34310;51.904;4.256;2023-03-19T14:07:34;15.35;;;10.52;;
48516;SDS011;34310;51.904;4.256;2023-03-19T14:10:05;14.55;;;10.55;;
48516;SDS011;34310;51.904;4.256;2023-03-19T14:12:40;14.68;;;10.75;;
48516;SDS011;34310;51.904;4.256;2023-03-19T14:20:23;13.45;;;10.30;;
48516;SDS011;34310;51.904;4.256;2023-03-19T14:26:09;13.48;;;10.02;;
48516;SDS011;34310;51.904;4.256;2023-03-19T14:28:45;13.02;;;9.57;;
48516;SDS011;34310;51.904;4.256;2023-03-19T14:34:07;12.95;;;9.57;;
48516;SDS011;34310;51.904;4.256;2023-03-19T14:39:31;13.05;;;9.18;;
48516;SDS011;34310;51.904;4.256;2023-03-19T14:42:56;14.30;;;9.90;;
48516;SDS011;34310;51.904;4.256;2023-03-19T14:45:17;14.20;;;10.30;;
48516;SDS011;34310;51.904;4.256;2023-03-19T14:56:43;14.60;;;10.10;;
48516;SDS011;34310;51.904;4.256;2023-03-19T14:59:13;13.25;;;9.32;;
48516;SDS011;34310;51.904;4.256;2023-03-19T15:01:43;13.65;;;9.85;;
48516;SDS011;34310;51.904;4.256;2023-03-19T15:04:19;13.35;;;9.85;;
48516;SDS011;34310;51.904;4.256;2023-03-19T15:06:57;14.02;;;9.82;;
48516;SDS011;34310;51.904;4.256;2023-03-19T15:09:27;14.45;;;10.13;;
48516;SDS011;34310;51.904;4.256;2023-03-19T15:14:51;12.15;;;8.95;;
48516;SDS011;34310;51.904;4.256;2023-03-19T15:17:39;13.32;;;9.88;;
48516;SDS011;34310;51.904;4.256;2023-03-19T15:20:14;13.40;;;9.57;;
48516;SDS011;34310;51.904;4.256;2023-03-19T15:22:59;12.40;;;9.18;;
48516;SDS011;34310;51.904;4.256;2023-03-19T15:25:27;13.10;;;9.40;;
48516;SDS011;34310;51.904;4.256;2023-03-19T15:28:11;14.02;;;10.43;;
48516;SDS011;34310;51.904;4.256;2023-03-19T15:30:39;14.23;;;9.45;;
48516;SDS011;34310;51.904;4.256;2023-03-19T15:38:45;12.80;;;9.65;;
48516;SDS011;34310;51.904;4.256;2023-03-19T15:41:17;12.70;;;9.45;;
48516;SDS011;34310;51.904;4.256;2023-03-19T15:43:47;11.90;;;8.68;;
48516;SDS011;34310;51.904;4.256;2023-03-19T15:46:15;11.45;;;8.75;;
48516;SDS011;34310;51.904;4.256;2023-03-19T15:51:36;12.98;;;9.50;;
48516;SDS011;34310;51.904;4.256;2023-03-19T15:54:05;12.32;;;9.30;;
48516;SDS011;34310;51.904;4.256;2023-03-19T15:56:34;11.55;;;8.43;;
48516;SDS011;34310;51.904;4.256;2023-03-19T15:59:01;11.35;;;8.18;;
48516;SDS011;34310;51.904;4.256;2023-03-19T16:01:30;11.95;;;8.85;;
48516;SDS011;34310;51.904;4.256;2023-03-19T16:04:03;10.43;;;8.05;;
48516;SDS011;34310;51.904;4.256;2023-03-19T16:06:38;12.23;;;8.98;;
48516;SDS011;34310;51.904;4.256;2023-03-19T16:11:40;12.80;;;8.73;;
48516;SDS011;34310;51.904;4.256;2023-03-19T16:14:14;11.95;;;8.05;;
48516;SDS011;34310;51.904;4.256;2023-03-19T16:16:58;11.93;;;8.32;;
48516;SDS011;34310;51.904;4.256;2023-03-19T16:19:28;10.18;;;7.60;;
48516;SDS011;34310;51.904;4.256;2023-03-19T16:21:59;11.02;;;8.18;;
48516;SDS011;34310;51.904;4.256;2023-03-19T16:24:35;11.27;;;8.48;;
48516;SDS011;34310;51.904;4.256;2023-03-19T16:27:06;11.40;;;8.27;;
48516;SDS011;34310;51.904;4.256;2023-03-19T16:29:43;10.38;;;7.75;;
48516;SDS011;34310;51.904;4.256;2023-03-19T16:32:20;11.18;;;8.13;;
48516;SDS011;34310;51.904;4.256;2023-03-19T16:42:41;11.60;;;7.95;;
48516;SDS011;34310;51.904;4.256;2023-03-19T16:47:42;10.50;;;8.23;;
48516;SDS011;34310;51.904;4.256;2023-03-19T16:50:14;10.50;;;7.68;;
48516;SDS011;34310;51.904;4.256;2023-03-19T16:52:44;10.50;;;7.55;;
48516;SDS011;34310;51.904;4.256;2023-03-19T16:58:05;10.63;;;7.75;;
48516;SDS011;34310;51.904;4.256;2023-03-19T17:00:38;11.43;;;7.95;;
48516;SDS011;34310;51.904;4.256;2023-03-19T17:03:12;10.38;;;7.50;;
48516;SDS011;34310;51.904;4.256;2023-03-19T17:05:42;9.30;;;7.00;;
48516;SDS011;34310;51.904;4.256;2023-03-19T17:08:10;9.73;;;7.00;;
48516;SDS011;34310;51.904;4.256;2023-03-19T17:10:40;9.52;;;6.90;;
48516;SDS011;34310;51.904;4.256;2023-03-19T17:13:15;10.02;;;7.10;;